Sombreffe, Belgium
Current Conditions -  °F | °C
As of 1:20 PM on Monday 24 Nov 2014 (Local Time) from EBCI Reporting Station
Few Clouds Few Clouds  
Wind Chill: 45°   Ceiling: Unl
Heat Index: 48°   Visibility: 6mi
Dew Point: 41°   Wind: 8mph
Humidity: 76%   Direction: 60°ENE
Pressure: 30.3"   Gusts: NA
Location:  50.53°N, 4.6°E
Report Text: EBCI 241220Z 06007KT 9999 FEW021 09/05 Q1026
Loading
Personal Weather Stations






























Interactive Weather Map New forecast layout! Learn more

10-Day Weather Forecast

Advertisements
Track Severe Weather on mobile